createdAt,value
2023-04-11T00:00:41.370Z,10.65
2023-04-11T00:01:41.405Z,10.69
2023-04-11T00:02:41.355Z,10.62
2023-04-11T00:04:02.301Z,10.71
2023-04-11T00:04:41.145Z,10.58
2023-04-11T00:05:40.961Z,10.56
2023-04-11T00:06:40.872Z,10.65
2023-04-11T00:07:40.806Z,10.65
2023-04-11T00:08:40.718Z,10.60
2023-04-11T00:10:01.616Z,10.71
2023-04-11T00:10:40.557Z,10.60
2023-04-11T00:11:40.492Z,10.71
2023-04-11T00:12:40.399Z,10.63
2023-04-11T00:13:40.305Z,10.71
2023-04-11T00:14:40.237Z,10.67
2023-04-11T00:16:01.142Z,10.67
2023-04-11T00:16:40.117Z,10.73
2023-04-11T00:17:40.013Z,10.78
2023-04-11T00:18:39.905Z,10.77
2023-04-11T00:19:39.835Z,10.78
2023-04-11T00:20:39.751Z,10.75
2023-04-11T00:22:00.658Z,10.80
2023-04-11T00:22:39.626Z,10.83
2023-04-11T00:23:39.495Z,10.77
2023-04-11T00:24:39.425Z,10.77
2023-04-11T00:25:39.349Z,10.71
2023-04-11T00:26:39.256Z,10.66
2023-04-11T00:28:00.153Z,10.69
2023-04-11T00:28:39.108Z,10.67
2023-04-11T00:29:39.022Z,10.69
2023-04-11T00:30:38.942Z,10.69
2023-04-11T00:31:38.869Z,10.74
2023-04-11T00:32:38.782Z,10.69
2023-04-11T00:33:59.693Z,10.69
2023-04-11T00:34:38.618Z,10.67
2023-04-11T00:35:38.537Z,10.67
2023-04-11T00:36:38.536Z,10.65
2023-04-11T00:37:38.360Z,10.66
2023-04-11T00:38:38.287Z,10.67
2023-04-11T00:39:59.188Z,10.65
2023-04-11T00:40:38.131Z,10.73
2023-04-11T00:41:38.038Z,10.80
2023-04-11T00:42:37.979Z,10.83
2023-04-11T00:43:37.887Z,10.75
2023-04-11T00:44:37.811Z,10.74
2023-04-11T00:45:58.710Z,10.83
2023-04-11T00:46:37.678Z,10.77
2023-04-11T00:47:37.606Z,10.78
2023-04-11T00:48:37.488Z,10.74
2023-04-11T00:49:37.426Z,10.87
2023-04-11T00:50:37.314Z,10.87
2023-04-11T00:51:58.205Z,10.83
2023-04-11T00:52:37.166Z,10.81
2023-04-11T00:53:37.089Z,10.77
2023-04-11T00:54:36.998Z,10.88
2023-04-11T00:55:36.902Z,10.77
2023-04-11T00:56:36.836Z,10.80
2023-04-11T00:57:57.729Z,10.81
2023-04-11T00:58:36.670Z,10.83
2023-04-11T00:59:36.579Z,10.83
2023-04-11T01:00:36.499Z,10.84
2023-04-11T01:01:36.573Z,10.84
2023-04-11T01:02:36.469Z,10.95
2023-04-11T01:03:57.471Z,10.93
2023-04-11T01:04:36.182Z,10.78
2023-04-11T01:05:36.107Z,10.92
2023-04-11T01:06:36.028Z,10.87
2023-04-11T01:07:35.944Z,10.80
2023-04-11T01:08:35.900Z,10.85
2023-04-11T01:09:56.754Z,10.83
2023-04-11T01:10:35.721Z,10.81
2023-04-11T01:11:35.611Z,10.84
2023-04-11T01:12:35.563Z,10.91
2023-04-11T01:13:35.455Z,10.88
2023-04-11T01:14:35.383Z,10.84
2023-04-11T01:15:56.281Z,10.77
2023-04-11T01:16:35.276Z,10.81
2023-04-11T01:17:35.193Z,10.75
2023-04-11T01:18:35.049Z,10.69
2023-04-11T01:19:34.987Z,10.75
2023-04-11T01:20:34.888Z,10.75
2023-04-11T01:21:55.792Z,10.80
2023-04-11T01:22:34.729Z,10.81
2023-04-11T01:23:34.641Z,10.71
2023-04-11T01:24:34.582Z,10.71
2023-04-11T01:25:34.481Z,10.66
2023-04-11T01:26:34.408Z,10.67
2023-04-11T01:27:55.311Z,10.58
2023-04-11T01:28:34.265Z,10.58
2023-04-11T01:29:34.157Z,10.55
2023-04-11T01:30:34.102Z,10.58
2023-04-11T01:31:34.007Z,10.51
2023-04-11T01:32:33.943Z,10.47
2023-04-11T01:33:54.830Z,10.58
2023-04-11T01:34:33.778Z,10.51
2023-04-11T01:35:33.704Z,10.51
2023-04-11T01:36:33.611Z,10.46
2023-04-11T01:37:33.519Z,10.41
2023-04-11T01:38:33.443Z,10.40
2023-04-11T01:39:54.330Z,10.33
2023-04-11T01:40:33.279Z,10.23
2023-04-11T01:41:33.204Z,10.34
2023-04-11T01:42:33.108Z,10.37
2023-04-11T01:43:33.032Z,10.37
2023-04-11T01:44:32.954Z,10.25
2023-04-11T01:45:53.846Z,10.33
2023-04-11T01:46:32.783Z,10.21
2023-04-11T01:47:32.788Z,10.22
2023-04-11T01:48:32.672Z,10.26
2023-04-11T01:49:32.548Z,10.28
2023-04-11T01:50:32.457Z,10.29
2023-04-11T01:51:53.369Z,10.07
2023-04-11T01:52:32.320Z,10.22
2023-04-11T01:53:32.216Z,10.16
2023-04-11T01:54:32.143Z,10.19
2023-04-11T01:55:32.056Z,10.15
2023-04-11T01:56:31.973Z,10.21
2023-04-11T01:57:52.871Z,10.13
2023-04-11T01:58:31.818Z,10.16
2023-04-11T01:59:31.793Z,10.07
2023-04-11T02:00:31.665Z,10.15
2023-04-11T02:01:31.648Z,10.08
2023-04-11T02:02:31.597Z,10.01
2023-04-11T02:03:52.482Z,10.10
2023-04-11T02:04:31.359Z,10.04
2023-04-11T02:05:31.242Z,10.07
2023-04-11T02:06:31.171Z,9.98
2023-04-11T02:07:31.082Z,9.98
2023-04-11T02:08:31.007Z,9.92
2023-04-11T02:09:51.910Z,9.80
2023-04-11T02:10:30.852Z,9.82
2023-04-11T02:11:30.772Z,9.80
2023-04-11T02:12:30.701Z,9.80
2023-04-11T02:13:30.600Z,9.78
2023-04-11T02:14:30.529Z,9.78
2023-04-11T02:15:51.462Z,9.80
2023-04-11T02:16:30.364Z,9.83
2023-04-11T02:17:30.322Z,9.80
2023-04-11T02:18:30.204Z,9.82
2023-04-11T02:19:30.113Z,9.79
2023-04-11T02:20:30.030Z,9.79
2023-04-11T02:21:50.948Z,9.85
2023-04-11T02:22:29.872Z,9.85
2023-04-11T02:23:29.795Z,9.83
2023-04-11T02:24:29.717Z,9.89
2023-04-11T02:25:29.637Z,9.80
2023-04-11T02:26:29.543Z,9.86
2023-04-11T02:27:50.444Z,9.98
2023-04-11T02:28:29.400Z,9.89
2023-04-11T02:29:29.306Z,9.96
2023-04-11T02:30:29.238Z,9.92
2023-04-11T02:31:29.285Z,9.89
2023-04-11T02:32:29.118Z,9.79
2023-04-11T02:33:49.961Z,9.90
2023-04-11T02:34:28.905Z,9.88
2023-04-11T02:35:28.820Z,9.89
2023-04-11T02:36:28.759Z,9.89
2023-04-11T02:37:28.656Z,9.79
2023-04-11T02:38:28.586Z,9.78
2023-04-11T02:39:49.487Z,9.96
2023-04-11T02:40:28.408Z,9.79
2023-04-11T02:41:28.324Z,9.72
2023-04-11T02:42:28.257Z,9.68
2023-04-11T02:43:28.174Z,9.71
2023-04-11T02:44:28.096Z,9.63
2023-04-11T02:45:49.831Z,9.55
2023-04-11T02:46:27.990Z,9.43
2023-04-11T02:47:27.918Z,9.43
2023-04-11T02:48:27.786Z,9.38
2023-04-11T02:49:27.699Z,9.38
2023-04-11T02:50:27.617Z,9.40
2023-04-11T02:51:48.525Z,9.35
2023-04-11T02:52:27.449Z,9.37
2023-04-11T02:53:27.349Z,9.40
2023-04-11T02:54:27.284Z,9.38
2023-04-11T02:55:27.184Z,9.38
2023-04-11T02:56:27.124Z,9.38
2023-04-11T02:57:48.024Z,9.42
2023-04-11T02:58:26.961Z,9.34
2023-04-11T02:59:26.869Z,9.40
2023-04-11T03:00:26.798Z,9.35
2023-04-11T03:01:26.751Z,9.35
2023-04-11T03:02:26.802Z,9.43
2023-04-11T03:03:47.626Z,9.37
2023-04-11T03:04:26.531Z,9.20
2023-04-11T03:05:26.409Z,9.19
2023-04-11T03:06:26.299Z,9.27
2023-04-11T03:07:26.216Z,9.32
2023-04-11T03:08:26.142Z,9.28
2023-04-11T03:09:47.042Z,9.22
2023-04-11T03:10:25.992Z,9.12
2023-04-11T03:11:25.895Z,9.24
2023-04-11T03:12:25.821Z,9.14
2023-04-11T03:13:25.724Z,9.13
2023-04-11T03:14:25.653Z,9.28
2023-04-11T03:15:46.596Z,9.10
2023-04-11T03:16:25.527Z,9.12
2023-04-11T03:17:25.433Z,9.27
2023-04-11T03:18:25.324Z,9.24
2023-04-11T03:19:25.242Z,9.24
2023-04-11T03:20:25.165Z,9.20
2023-04-11T03:21:46.065Z,9.25
2023-04-11T03:22:25.008Z,9.20
2023-04-11T03:23:24.923Z,9.22
2023-04-11T03:24:24.855Z,9.22
2023-04-11T03:25:24.755Z,9.22
2023-04-11T03:26:24.683Z,9.20
2023-04-11T03:27:45.579Z,9.19
2023-04-11T03:28:24.528Z,9.20
2023-04-11T03:29:24.427Z,9.24
2023-04-11T03:30:24.365Z,9.22
2023-04-11T03:31:24.345Z,9.27
2023-04-11T03:32:24.217Z,9.29
2023-04-11T03:33:45.093Z,9.28
2023-04-11T03:34:24.031Z,9.28
2023-04-11T03:35:23.950Z,9.14
2023-04-11T03:36:23.878Z,9.14
2023-04-11T03:37:23.777Z,9.25
2023-04-11T03:38:23.714Z,9.09
2023-04-11T03:39:44.608Z,9.16
2023-04-11T03:40:23.541Z,9.20
2023-04-11T03:41:23.450Z,9.28
2023-04-11T03:42:23.383Z,9.34
2023-04-11T03:43:23.297Z,9.29
2023-04-11T03:44:23.228Z,9.29
2023-04-11T03:45:44.136Z,9.27
2023-04-11T03:46:23.101Z,9.28
2023-04-11T03:47:22.974Z,9.29
2023-04-11T03:48:22.904Z,9.29
2023-04-11T03:49:22.811Z,9.28
2023-04-11T03:50:22.732Z,9.24
2023-04-11T03:51:43.639Z,9.28
2023-04-11T03:52:22.576Z,9.25
2023-04-11T03:53:22.479Z,9.27
2023-04-11T03:54:22.407Z,9.34
2023-04-11T03:55:22.319Z,9.14
2023-04-11T03:56:22.259Z,9.28
2023-04-11T03:57:43.138Z,9.22
2023-04-11T03:58:22.073Z,9.24
2023-04-11T03:59:22.000Z,9.27
2023-04-11T04:00:21.909Z,9.31
2023-04-11T04:01:21.838Z,9.32
2023-04-11T04:02:21.950Z,9.37
2023-04-11T04:03:42.954Z,9.35
2023-04-11T04:04:21.629Z,9.37
2023-04-11T04:05:21.516Z,9.40
2023-04-11T04:06:21.427Z,9.37
2023-04-11T04:07:21.339Z,9.43
2023-04-11T04:08:21.266Z,9.43
2023-04-11T04:09:42.152Z,9.40
2023-04-11T04:10:21.098Z,9.42
2023-04-11T04:11:21.020Z,9.47
2023-04-11T04:12:20.940Z,9.53
2023-04-11T04:13:20.853Z,9.50
2023-04-11T04:14:20.781Z,9.56
2023-04-11T04:15:41.669Z,9.60
2023-04-11T04:16:20.657Z,9.58
2023-04-11T04:17:20.515Z,9.61
2023-04-11T04:18:20.456Z,9.68
2023-04-11T04:19:20.349Z,9.61
2023-04-11T04:20:20.304Z,9.68
2023-04-11T04:21:41.173Z,9.65
2023-04-11T04:22:20.122Z,9.61
2023-04-11T04:23:20.082Z,9.70
2023-04-11T04:24:19.950Z,9.64
2023-04-11T04:25:19.897Z,9.70
2023-04-11T04:26:19.789Z,9.71
2023-04-11T04:27:40.693Z,9.75
2023-04-11T04:28:19.627Z,9.82
2023-04-11T04:29:19.555Z,9.78
2023-04-11T04:30:19.466Z,9.74
2023-04-11T04:31:19.485Z,9.80
2023-04-11T04:32:19.312Z,9.83
2023-04-11T04:33:40.207Z,9.83
2023-04-11T04:34:19.146Z,9.74
2023-04-11T04:35:19.056Z,9.93
2023-04-11T04:36:18.992Z,9.93
2023-04-11T04:37:18.900Z,9.88
2023-04-11T04:38:18.812Z,9.92
2023-04-11T04:39:39.722Z,9.93
2023-04-11T04:40:18.646Z,9.90
2023-04-11T04:41:18.572Z,9.96
2023-04-11T04:42:18.483Z,9.88
2023-04-11T04:43:18.559Z,9.89
2023-04-11T04:44:18.343Z,9.89
2023-04-11T04:45:39.242Z,9.88
2023-04-11T04:46:18.221Z,9.92
2023-04-11T04:47:18.082Z,9.89
2023-04-11T04:48:18.029Z,9.86
2023-04-11T04:49:17.915Z,9.90
2023-04-11T04:50:17.841Z,9.92
2023-04-11T04:51:38.756Z,9.96
2023-04-11T04:52:17.666Z,9.90
2023-04-11T04:53:17.604Z,9.89
2023-04-11T04:54:17.515Z,9.90
2023-04-11T04:55:17.440Z,9.92
2023-04-11T04:56:17.351Z,9.92
2023-04-11T04:57:38.245Z,9.97
2023-04-11T04:58:17.208Z,9.89
2023-04-11T04:59:17.116Z,9.98
2023-04-11T05:00:17.018Z,9.93
2023-04-11T05:01:17.068Z,9.90
2023-04-11T05:02:16.989Z,9.89
2023-04-11T05:03:37.844Z,9.97
2023-04-11T05:04:16.805Z,10.04
2023-04-11T05:05:16.632Z,9.96
2023-04-11T05:06:17.422Z,9.97
2023-04-11T05:07:16.470Z,10.04
2023-04-11T05:08:16.371Z,10.04
2023-04-11T05:09:37.271Z,10.07
2023-04-11T05:10:16.212Z,10.00
2023-04-11T05:11:16.128Z,10.11
2023-04-11T05:12:16.076Z,10.01
2023-04-11T05:13:15.987Z,10.07
2023-04-11T05:14:15.879Z,10.04
2023-04-11T05:15:36.802Z,10.03
2023-04-11T05:16:15.759Z,10.03
2023-04-11T05:17:16.179Z,10.11
2023-04-11T05:18:15.589Z,10.04
2023-04-11T05:19:15.490Z,10.10
2023-04-11T05:20:15.414Z,10.07
2023-04-11T05:21:36.292Z,10.06
2023-04-11T05:22:15.239Z,10.07
2023-04-11T05:23:15.164Z,10.10
2023-04-11T05:24:15.066Z,10.10
2023-04-11T05:25:15.011Z,10.08
2023-04-11T05:26:14.917Z,10.08
2023-04-11T05:27:35.804Z,10.06
2023-04-11T05:28:14.754Z,10.13
2023-04-11T05:29:14.670Z,10.13
2023-04-11T05:30:14.599Z,10.16
2023-04-11T05:31:14.558Z,10.11
2023-04-11T05:32:14.424Z,10.13
2023-04-11T05:33:35.336Z,10.15
2023-04-11T05:34:14.270Z,10.22
2023-04-11T05:35:14.220Z,10.16
2023-04-11T05:36:14.399Z,10.18
2023-04-11T05:37:14.031Z,10.18
2023-04-11T05:38:13.941Z,10.16
2023-04-11T05:39:34.847Z,10.16
2023-04-11T05:40:13.784Z,10.10
2023-04-11T05:41:13.687Z,9.92
2023-04-11T05:42:13.613Z,9.96
2023-04-11T05:43:13.532Z,9.85
2023-04-11T05:44:13.461Z,9.89
2023-04-11T05:45:34.357Z,9.82
2023-04-11T05:46:13.319Z,9.82
2023-04-11T05:47:13.218Z,9.80
2023-04-11T05:48:14.814Z,9.65
2023-04-11T05:49:13.039Z,9.56
2023-04-11T05:50:12.958Z,9.63
2023-04-11T05:51:33.872Z,9.56
2023-04-11T05:52:12.799Z,9.55
2023-04-11T05:53:12.738Z,9.43
2023-04-11T05:54:12.630Z,9.42
2023-04-11T05:55:12.559Z,9.37
2023-04-11T05:56:12.476Z,9.38
2023-04-11T05:57:33.379Z,9.34
2023-04-11T05:58:12.310Z,9.28
2023-04-11T05:59:12.231Z,9.31
2023-04-11T06:00:12.154Z,9.16
2023-04-11T06:01:12.069Z,9.22
2023-04-11T06:02:12.054Z,9.22
2023-04-11T06:03:33.025Z,9.14
2023-04-11T06:04:12.000Z,9.12
2023-04-11T06:05:11.976Z,9.24
2023-04-11T06:06:11.688Z,9.29
2023-04-11T06:07:11.700Z,9.32
2023-04-11T06:08:11.485Z,9.31
2023-04-11T06:09:33.905Z,9.35
2023-04-11T06:10:11.335Z,9.35
2023-04-11T06:11:11.294Z,9.29
2023-04-11T06:12:11.370Z,9.31
2023-04-11T06:13:11.093Z,9.28
2023-04-11T06:14:11.000Z,9.29
2023-04-11T06:15:31.934Z,9.34
2023-04-11T06:16:10.896Z,9.20
2023-04-11T06:17:10.752Z,9.22
2023-04-11T06:18:10.810Z,9.29
2023-04-11T06:19:10.598Z,9.31
2023-04-11T06:20:10.515Z,9.32
2023-04-11T06:21:31.412Z,9.32
2023-04-11T06:22:10.346Z,9.25
2023-04-11T06:23:10.275Z,9.27
2023-04-11T06:24:10.184Z,9.34
2023-04-11T06:25:10.111Z,9.29
2023-04-11T06:26:11.461Z,9.32
2023-04-11T06:27:30.918Z,9.27
2023-04-11T06:28:09.855Z,9.22
2023-04-11T06:29:09.780Z,9.27
2023-04-11T06:30:09.686Z,9.27
2023-04-11T06:31:09.673Z,9.12
2023-04-11T06:32:09.530Z,9.29
2023-04-11T06:33:30.424Z,9.28
2023-04-11T06:34:09.372Z,9.14
2023-04-11T06:35:09.295Z,9.31
2023-04-11T06:36:09.235Z,9.22
2023-04-11T06:37:09.122Z,9.25
2023-04-11T06:38:09.046Z,9.31
2023-04-11T06:39:29.944Z,9.20
2023-04-11T06:40:08.878Z,9.25
2023-04-11T06:41:08.798Z,9.19
2023-04-11T06:42:08.731Z,9.17
2023-04-11T06:43:08.731Z,9.16
2023-04-11T06:44:08.594Z,9.16
2023-04-11T06:45:29.462Z,9.19
2023-04-11T06:46:08.436Z,9.16
2023-04-11T06:47:08.300Z,9.19
2023-04-11T06:48:08.307Z,9.19
2023-04-11T06:49:08.142Z,9.12
2023-04-11T06:50:08.059Z,9.16
2023-04-11T06:51:28.959Z,9.14
2023-04-11T06:52:08.261Z,9.22
2023-04-11T06:53:07.826Z,9.19
2023-04-11T06:54:07.734Z,9.19
2023-04-11T06:55:07.721Z,9.14
2023-04-11T06:56:07.576Z,9.19
2023-04-11T06:57:28.471Z,9.27
2023-04-11T06:58:07.404Z,9.24
2023-04-11T06:59:07.328Z,9.17
2023-04-11T07:00:07.309Z,9.09
2023-04-11T07:01:07.154Z,9.16
2023-04-11T07:02:07.141Z,9.25
2023-04-11T07:03:28.031Z,9.32
2023-04-11T07:04:06.993Z,9.34
2023-04-11T07:05:06.837Z,9.37
2023-04-11T07:06:06.768Z,9.34
2023-04-11T07:07:06.669Z,9.40
2023-04-11T07:08:06.603Z,9.34
2023-04-11T07:09:27.494Z,9.45
2023-04-11T07:10:06.427Z,9.37
2023-04-11T07:11:06.359Z,9.46
2023-04-11T07:12:06.281Z,9.42
2023-04-11T07:13:06.182Z,9.55
2023-04-11T07:14:06.100Z,9.52
2023-04-11T07:15:27.011Z,9.45
2023-04-11T07:16:05.957Z,9.53
2023-04-11T07:17:05.869Z,9.38
2023-04-11T07:18:05.823Z,9.37
2023-04-11T07:19:05.689Z,9.37
2023-04-11T07:20:05.656Z,9.38
2023-04-11T07:21:26.509Z,9.40
2023-04-11T07:22:05.448Z,9.43
2023-04-11T07:23:05.357Z,9.38
2023-04-11T07:24:05.289Z,9.42
2023-04-11T07:25:05.204Z,9.37
2023-04-11T07:26:05.139Z,9.42
2023-04-11T07:27:26.064Z,9.37
2023-04-11T07:28:04.938Z,9.37
2023-04-11T07:29:05.284Z,9.35
2023-04-11T07:30:04.808Z,9.37
2023-04-11T07:31:04.738Z,9.43
2023-04-11T07:32:04.708Z,9.40
2023-04-11T07:33:25.521Z,9.37
2023-04-11T07:34:04.466Z,9.42
2023-04-11T07:35:04.383Z,9.40
2023-04-11T07:36:04.300Z,9.45
2023-04-11T07:37:04.264Z,9.35
2023-04-11T07:38:04.119Z,9.52
2023-04-11T07:39:25.021Z,9.42
2023-04-11T07:40:03.996Z,9.45
2023-04-11T07:41:03.888Z,9.56
2023-04-11T07:42:03.788Z,9.45
2023-04-11T07:43:03.728Z,9.60
2023-04-11T07:44:03.638Z,9.64
2023-04-11T07:45:24.621Z,9.65
2023-04-11T07:46:03.542Z,9.68
2023-04-11T07:47:03.400Z,9.56
2023-04-11T07:48:03.359Z,9.56
2023-04-11T07:49:03.230Z,9.60
2023-04-11T07:50:03.175Z,9.65
2023-04-11T07:51:24.056Z,9.67
2023-04-11T07:52:02.978Z,9.67
2023-04-11T07:53:02.914Z,9.74
2023-04-11T07:54:02.831Z,9.71
2023-04-11T07:55:02.761Z,9.64
2023-04-11T07:56:02.667Z,9.67
2023-04-11T07:57:23.562Z,9.75
2023-04-11T07:58:02.499Z,9.80
2023-04-11T07:59:02.405Z,9.83
2023-04-11T08:00:02.344Z,9.90
2023-04-11T08:01:02.241Z,9.92
2023-04-11T08:02:02.258Z,9.92
2023-04-11T08:03:23.589Z,10.01
2023-04-11T08:04:02.310Z,10.03
2023-04-11T08:05:02.190Z,10.04
2023-04-11T08:06:01.842Z,10.03
2023-04-11T08:07:01.757Z,10.21
2023-04-11T08:08:01.713Z,10.15
2023-04-11T08:09:22.572Z,10.23
2023-04-11T08:10:01.509Z,10.33
2023-04-11T08:11:01.487Z,10.26
2023-04-11T08:12:01.352Z,10.34
2023-04-11T08:13:01.262Z,10.37
2023-04-11T08:14:01.177Z,10.41
2023-04-11T08:15:22.098Z,10.43
2023-04-11T08:16:01.025Z,10.37
2023-04-11T08:17:01.030Z,10.40
2023-04-11T08:18:00.879Z,10.36
2023-04-11T08:19:00.797Z,10.44
2023-04-11T08:20:02.330Z,10.47
2023-04-11T08:21:21.601Z,10.37
2023-04-11T08:22:00.547Z,10.46
2023-04-11T08:23:00.468Z,10.41
2023-04-11T08:24:00.383Z,10.40
2023-04-11T08:25:00.312Z,10.41
2023-04-11T08:26:00.211Z,10.39
2023-04-11T08:27:21.118Z,10.46
2023-04-11T08:28:00.054Z,10.41
2023-04-11T08:28:59.965Z,10.37
2023-04-11T08:29:59.886Z,10.44
2023-04-11T08:30:59.838Z,10.33
2023-04-11T08:31:59.735Z,10.37
2023-04-11T08:33:20.645Z,10.36
2023-04-11T08:34:01.422Z,10.40
2023-04-11T08:34:59.477Z,10.39
2023-04-11T08:35:59.434Z,10.39
2023-04-11T08:36:59.330Z,10.46
2023-04-11T08:37:59.245Z,10.63
2023-04-11T08:39:20.148Z,10.65
2023-04-11T08:39:59.310Z,10.75
2023-04-11T08:40:58.997Z,10.75
2023-04-11T08:41:58.928Z,10.85
2023-04-11T08:42:58.872Z,10.91
2023-04-11T08:43:58.935Z,10.85
2023-04-11T08:45:19.657Z,10.91
2023-04-11T08:45:58.622Z,11.00
2023-04-11T08:46:58.556Z,11.02
2023-04-11T08:47:58.493Z,11.05
2023-04-11T08:48:58.332Z,11.10
2023-04-11T08:49:58.285Z,11.16
2023-04-11T08:51:19.162Z,11.11
2023-04-11T08:51:58.115Z,11.16
2023-04-11T08:52:58.032Z,11.13
2023-04-11T08:53:58.309Z,11.28
2023-04-11T08:54:57.863Z,11.38
2023-04-11T08:55:57.786Z,11.42
2023-04-11T08:57:18.681Z,11.38
2023-04-11T08:57:57.614Z,11.32
2023-04-11T08:58:57.562Z,11.28
2023-04-11T08:59:57.478Z,11.31
2023-04-11T09:00:57.377Z,11.28
2023-04-11T09:01:57.358Z,11.32
2023-04-11T09:03:18.368Z,11.42
2023-04-11T09:03:57.321Z,11.53
2023-04-11T09:04:57.084Z,11.71
2023-04-11T09:05:56.999Z,11.84
2023-04-11T09:06:58.446Z,11.97
2023-04-11T09:07:56.814Z,12.00
2023-04-11T09:09:17.697Z,12.08
2023-04-11T09:09:56.652Z,12.08
2023-04-11T09:10:56.571Z,12.06
2023-04-11T09:11:56.493Z,12.16
2023-04-11T09:12:56.407Z,12.28
2023-04-11T09:13:56.506Z,12.21
2023-04-11T09:15:17.233Z,12.15
2023-04-11T09:15:56.170Z,12.24
2023-04-11T09:16:56.065Z,12.13
2023-04-11T09:17:57.561Z,12.18
2023-04-11T09:18:56.072Z,12.11
2023-04-11T09:19:55.866Z,12.05
2023-04-11T09:21:16.738Z,12.11
2023-04-11T09:21:55.676Z,12.13
2023-04-11T09:22:55.604Z,12.16
2023-04-11T09:23:55.687Z,12.31
2023-04-11T09:24:55.437Z,12.36
2023-04-11T09:25:55.357Z,12.42
2023-04-11T09:27:16.253Z,12.36
2023-04-11T09:27:55.205Z,12.28
2023-04-11T09:28:55.162Z,12.36
2023-04-11T09:29:55.031Z,12.41
2023-04-11T09:30:54.975Z,12.23
2023-04-11T09:31:54.872Z,12.30
2023-04-11T09:33:15.773Z,12.23
2023-04-11T09:33:55.008Z,12.39
2023-04-11T09:34:54.635Z,12.55
2023-04-11T09:35:54.601Z,12.53
2023-04-11T09:36:54.474Z,12.44
2023-04-11T09:37:54.454Z,12.52
2023-04-11T09:39:15.295Z,12.52
2023-04-11T09:39:54.248Z,12.48
2023-04-11T09:40:54.144Z,12.48
2023-04-11T09:41:54.075Z,12.48
2023-04-11T09:42:53.981Z,12.44
2023-04-11T09:43:53.995Z,12.42
2023-04-11T09:45:14.811Z,12.23
2023-04-11T09:45:54.740Z,12.11
2023-04-11T09:46:53.766Z,11.97
2023-04-11T09:47:53.674Z,11.98
2023-04-11T09:48:53.513Z,12.02
2023-04-11T09:49:53.433Z,11.89
2023-04-11T09:51:53.267Z,11.69
2023-04-11T09:52:53.210Z,11.56
2023-04-11T09:53:40.337Z,11.87
2023-04-11T09:53:53.161Z,11.49
2023-04-11T09:54:53.031Z,11.47
2023-04-11T09:55:52.946Z,11.35
2023-04-11T09:57:13.859Z,11.32
2023-04-11T09:57:52.803Z,11.16
2023-04-11T09:58:52.836Z,11.05
2023-04-11T09:59:52.629Z,10.83
2023-04-11T10:00:52.532Z,10.69
2023-04-11T10:01:52.537Z,10.75
2023-04-11T10:03:13.487Z,10.88
2023-04-11T10:03:52.371Z,11.00
2023-04-11T10:04:52.270Z,11.13
2023-04-11T10:05:52.154Z,11.21
2023-04-11T10:06:52.059Z,11.24
2023-04-11T10:07:51.986Z,11.34
2023-04-11T10:09:12.889Z,11.60
2023-04-11T10:09:51.821Z,11.86
2023-04-11T10:10:51.739Z,11.83
2023-04-11T10:11:51.665Z,11.93
2023-04-11T10:12:51.577Z,12.15
2023-04-11T10:13:51.508Z,12.33
2023-04-11T10:15:12.392Z,12.48
2023-04-11T10:15:51.352Z,12.61
2023-04-11T10:16:51.258Z,12.63
2023-04-11T10:17:51.295Z,12.74
2023-04-11T10:18:51.088Z,12.79
2023-04-11T10:19:51.042Z,12.96
2023-04-11T10:21:11.925Z,13.06
2023-04-11T10:21:50.859Z,13.19
2023-04-11T10:22:50.777Z,13.32
2023-04-11T10:23:50.702Z,13.50
2023-04-11T10:24:50.613Z,13.63
2023-04-11T10:25:50.565Z,13.62
2023-04-11T10:27:11.448Z,13.66
2023-04-11T10:27:50.471Z,13.76
2023-04-11T10:28:50.298Z,13.81
2023-04-11T10:29:51.671Z,13.96
2023-04-11T10:30:50.142Z,13.89
2023-04-11T10:31:50.106Z,13.95
2023-04-11T10:33:10.967Z,13.81
2023-04-11T10:33:49.903Z,13.70
2023-04-11T10:34:49.810Z,13.50
2023-04-11T10:35:49.793Z,13.47
2023-04-11T10:36:49.656Z,13.48
2023-04-11T10:37:49.585Z,13.71
2023-04-11T10:39:10.477Z,13.66
2023-04-11T10:39:49.439Z,13.84
2023-04-11T10:40:49.350Z,13.98
2023-04-11T10:41:49.280Z,13.91
2023-04-11T10:42:49.217Z,14.10
2023-04-11T10:43:49.113Z,14.11
2023-04-11T10:45:10.007Z,14.03
2023-04-11T10:45:48.949Z,14.14
2023-04-11T10:46:48.977Z,14.31
2023-04-11T10:47:48.825Z,14.31
2023-04-11T10:48:48.711Z,14.36
2023-04-11T10:49:48.630Z,14.41
2023-04-11T10:51:09.532Z,14.47
2023-04-11T10:51:48.481Z,14.67
2023-04-11T10:52:48.396Z,14.64
2023-04-11T10:53:48.312Z,14.72
2023-04-11T10:54:48.241Z,14.85
2023-04-11T10:55:48.165Z,14.91
2023-04-11T10:57:09.061Z,14.80
2023-04-11T10:57:47.996Z,14.75
2023-04-11T10:58:47.916Z,14.91
2023-04-11T10:59:47.852Z,14.60
2023-04-11T11:00:47.777Z,14.64
2023-04-11T11:01:52.326Z,14.49
2023-04-11T11:03:08.683Z,14.52
2023-04-11T11:03:47.669Z,14.53
2023-04-11T11:04:47.593Z,14.60
2023-04-11T11:05:47.372Z,14.60
2023-04-11T11:06:54.845Z,14.64
2023-04-11T11:07:47.218Z,14.71
2023-04-11T11:09:08.116Z,14.74
2023-04-11T11:09:47.057Z,14.67
2023-04-11T11:10:46.973Z,14.65
2023-04-11T11:11:46.898Z,14.52
2023-04-11T11:12:46.813Z,14.50
2023-04-11T11:13:46.750Z,14.46
2023-04-11T11:15:07.647Z,14.47
2023-04-11T11:15:46.581Z,14.61
2023-04-11T11:16:46.559Z,14.67
2023-04-11T11:17:46.446Z,14.78
2023-04-11T11:18:46.339Z,14.91
2023-04-11T11:19:46.420Z,15.10
2023-04-11T11:21:09.302Z,15.24
2023-04-11T11:21:46.114Z,15.33
2023-04-11T11:22:46.034Z,15.41
2023-04-11T11:23:45.956Z,15.55
2023-04-11T11:24:45.898Z,15.51
2023-04-11T11:25:45.803Z,15.68
2023-04-11T11:27:06.698Z,15.66
2023-04-11T11:27:45.640Z,15.76
2023-04-11T11:28:45.560Z,15.68
2023-04-11T11:29:45.474Z,15.66
2023-04-11T11:30:45.392Z,15.64
2023-04-11T11:31:45.431Z,15.61
2023-04-11T11:33:06.256Z,15.52
2023-04-11T11:33:45.159Z,15.57
2023-04-11T11:34:45.083Z,15.55
2023-04-11T11:35:45.014Z,15.45
2023-04-11T11:36:44.984Z,15.45
2023-04-11T11:37:44.850Z,15.46
2023-04-11T11:39:05.761Z,15.52
2023-04-11T11:39:44.709Z,15.51
2023-04-11T11:40:44.626Z,15.63
2023-04-11T11:41:44.547Z,15.68
2023-04-11T11:42:44.461Z,15.82
2023-04-11T11:43:44.379Z,15.78
2023-04-11T11:45:05.281Z,15.85
2023-04-11T11:45:44.259Z,15.89
2023-04-11T11:46:44.160Z,16.01
2023-04-11T11:47:44.110Z,16.04
2023-04-11T11:48:43.990Z,16.16
2023-04-11T11:49:43.917Z,16.07
2023-04-11T11:51:04.832Z,15.91
2023-04-11T11:51:43.760Z,15.89
2023-04-11T11:52:43.708Z,16.03
2023-04-11T11:53:43.600Z,15.99
2023-04-11T11:54:43.518Z,16.04
2023-04-11T11:55:43.452Z,16.16
2023-04-11T11:57:04.341Z,16.12
2023-04-11T11:57:43.292Z,16.33
2023-04-11T11:58:43.216Z,16.45
2023-04-11T11:59:43.145Z,16.29
2023-04-11T12:00:43.061Z,16.16
2023-04-11T12:01:43.026Z,16.06
2023-04-11T12:03:04.118Z,15.76
2023-04-11T12:03:42.890Z,15.67
2023-04-11T12:04:42.945Z,15.51
2023-04-11T12:05:42.681Z,15.38
2023-04-11T12:06:42.608Z,15.26
2023-04-11T12:07:42.547Z,15.15
2023-04-11T12:09:03.419Z,15.02
2023-04-11T12:09:42.365Z,14.90
2023-04-11T12:10:42.288Z,14.85
2023-04-11T12:11:42.200Z,14.60
2023-04-11T12:12:42.125Z,14.47
2023-04-11T12:13:42.051Z,14.41
2023-04-11T12:15:02.949Z,14.34
2023-04-11T12:15:41.912Z,14.34
2023-04-11T12:16:41.812Z,14.35
2023-04-11T12:17:41.786Z,14.38
2023-04-11T12:18:41.645Z,14.34
2023-04-11T12:19:41.588Z,14.35
2023-04-11T12:21:02.482Z,14.42
2023-04-11T12:21:41.420Z,14.46
2023-04-11T12:22:41.343Z,14.36
2023-04-11T12:23:41.281Z,14.35
2023-04-11T12:24:41.205Z,14.41
2023-04-11T12:25:41.113Z,14.50
2023-04-11T12:27:06.832Z,14.46
2023-04-11T12:27:40.972Z,14.41
2023-04-11T12:28:40.870Z,14.32
2023-04-11T12:29:40.795Z,14.29
2023-04-11T12:30:40.755Z,14.31
2023-04-11T12:31:40.663Z,14.23
2023-04-11T12:33:01.571Z,14.24
2023-04-11T12:33:40.484Z,14.20
2023-04-11T12:34:40.406Z,14.24
2023-04-11T12:35:40.321Z,14.16
2023-04-11T12:36:40.249Z,14.28
2023-04-11T12:37:40.177Z,14.31
2023-04-11T12:39:01.074Z,14.14
2023-04-11T12:39:40.013Z,14.13
2023-04-11T12:40:39.927Z,14.10
2023-04-11T12:41:39.854Z,14.01
2023-04-11T12:42:45.698Z,14.01
2023-04-11T12:43:39.690Z,13.92
2023-04-11T12:45:00.613Z,13.86
2023-04-11T12:45:39.534Z,13.73
2023-04-11T12:46:39.471Z,13.61
2023-04-11T12:47:39.404Z,13.38
2023-04-11T12:48:39.297Z,13.24
2023-04-11T12:49:39.216Z,13.06
2023-04-11T12:51:00.126Z,12.91
2023-04-11T12:51:39.053Z,12.66
2023-04-11T12:52:38.981Z,12.61
2023-04-11T12:53:38.916Z,12.59
2023-04-11T12:54:38.827Z,12.70
2023-04-11T12:55:38.796Z,12.67
2023-04-11T12:56:59.642Z,12.88
2023-04-11T12:57:38.588Z,12.99
2023-04-11T12:58:38.514Z,13.03
2023-04-11T12:59:38.430Z,13.22
2023-04-11T13:00:38.349Z,13.40
2023-04-11T13:01:38.340Z,13.50
2023-04-11T13:02:59.556Z,13.59